createdAt,value
2023-02-21T00:02:10.398Z,82.74
2023-02-21T00:04:55.107Z,82.77
2023-02-21T00:07:40.266Z,82.78
2023-02-21T00:10:25.177Z,82.58
2023-02-21T00:13:09.660Z,82.86
2023-02-21T00:15:54.330Z,82.66
2023-02-21T00:18:39.631Z,82.70
2023-02-21T00:21:25.058Z,82.90
2023-02-21T00:24:09.581Z,82.97
2023-02-21T00:26:54.066Z,83.00
2023-02-21T00:29:38.596Z,83.27
2023-02-21T00:32:23.738Z,83.37
2023-02-21T00:35:08.592Z,83.49
2023-02-21T00:37:53.653Z,83.49
2023-02-21T00:40:38.173Z,83.68
2023-02-21T00:43:23.265Z,83.66
2023-02-21T00:46:08.396Z,83.85
2023-02-21T00:48:53.359Z,84.05
2023-02-21T00:51:38.372Z,84.28
2023-02-21T00:54:23.002Z,84.21
2023-02-21T00:57:07.817Z,84.26
2023-02-21T00:59:52.688Z,84.42
2023-02-21T01:02:37.291Z,84.61
2023-02-21T01:05:22.395Z,84.73
2023-02-21T01:08:08.081Z,84.74
2023-02-21T01:10:53.264Z,84.89
2023-02-21T01:13:37.878Z,84.85
2023-02-21T01:16:25.241Z,85.01
2023-02-21T01:19:10.633Z,85.13
2023-02-21T01:21:55.578Z,85.24
2023-02-21T01:24:41.507Z,85.33
2023-02-21T01:27:26.083Z,85.53
2023-02-21T01:30:10.751Z,85.40
2023-02-21T01:32:55.666Z,85.53
2023-02-21T01:35:40.610Z,85.82
2023-02-21T01:38:25.182Z,85.84
2023-02-21T01:41:09.939Z,85.69
2023-02-21T01:43:54.481Z,85.80
2023-02-21T01:46:39.300Z,85.85
2023-02-21T01:49:30.571Z,86.00
2023-02-21T01:52:15.553Z,86.02
2023-02-21T01:55:05.783Z,86.09
2023-02-21T01:57:53.380Z,86.27
2023-02-21T02:00:38.753Z,86.16
2023-02-21T02:03:29.012Z,86.18
2023-02-21T02:06:27.447Z,86.13
2023-02-21T02:09:11.986Z,86.23
2023-02-21T02:12:22.058Z,86.37
2023-02-21T02:15:02.109Z,86.46
2023-02-21T02:17:42.410Z,86.41
2023-02-21T02:20:19.599Z,86.40
2023-02-21T02:22:57.393Z,86.40
2023-02-21T02:25:32.582Z,86.36
2023-02-21T02:28:16.954Z,86.36
2023-02-21T02:31:09.813Z,86.33
2023-02-21T02:34:02.639Z,86.41
2023-02-21T02:36:36.797Z,86.24
2023-02-21T02:39:10.155Z,86.35
2023-02-21T02:41:49.381Z,86.37
2023-02-21T02:44:21.945Z,86.32
2023-02-21T02:46:48.705Z,86.35
2023-02-21T02:49:25.676Z,86.23
2023-02-21T02:51:51.801Z,86.30
2023-02-21T02:54:19.572Z,86.43
2023-02-21T02:56:45.920Z,86.45
2023-02-21T02:59:16.037Z,86.63
2023-02-21T03:01:49.151Z,86.47
2023-02-21T03:04:30.508Z,86.42
2023-02-21T03:07:15.055Z,86.44
2023-02-21T03:10:09.852Z,86.34
2023-02-21T03:12:55.543Z,86.21
2023-02-21T03:15:25.177Z,86.19
2023-02-21T03:17:56.182Z,86.23
2023-02-21T03:20:22.190Z,86.33
2023-02-21T03:22:48.251Z,86.36
2023-02-21T03:25:14.403Z,86.29
2023-02-21T03:27:41.459Z,86.51
2023-02-21T03:30:18.167Z,86.58
2023-02-21T03:32:50.269Z,86.55
2023-02-21T03:35:16.783Z,86.40
2023-02-21T03:37:44.634Z,86.23
2023-02-21T03:40:25.434Z,86.08
2023-02-21T03:42:52.749Z,86.08
2023-02-21T03:45:19.220Z,85.99
2023-02-21T03:47:54.520Z,86.05
2023-02-21T03:50:20.746Z,86.01
2023-02-21T03:52:46.838Z,85.89
2023-02-21T03:55:13.146Z,85.98
2023-02-21T03:57:39.177Z,86.02
2023-02-21T04:00:06.215Z,85.91
2023-02-21T04:02:41.644Z,86.27
2023-02-21T04:05:09.317Z,86.26
2023-02-21T04:07:35.458Z,86.36
2023-02-21T04:10:01.646Z,86.31
2023-02-21T04:12:36.357Z,86.13
2023-02-21T04:15:02.999Z,86.25
2023-02-21T04:17:29.003Z,86.32
2023-02-21T04:19:55.873Z,86.16
2023-02-21T04:22:22.204Z,86.07
2023-02-21T04:24:48.425Z,85.87
2023-02-21T04:27:15.620Z,85.90
2023-02-21T04:29:46.688Z,85.64
2023-02-21T04:32:12.924Z,85.45
2023-02-21T04:34:39.046Z,85.47
2023-02-21T04:37:05.039Z,85.35
2023-02-21T04:39:31.603Z,85.09
2023-02-21T04:41:57.828Z,85.15
2023-02-21T04:44:23.780Z,84.99
2023-02-21T04:46:49.727Z,84.72
2023-02-21T04:49:15.884Z,84.67
2023-02-21T04:51:41.864Z,84.55
2023-02-21T04:54:07.901Z,84.54
2023-02-21T04:56:33.958Z,84.42
2023-02-21T04:59:00.036Z,84.49
2023-02-21T05:01:27.796Z,84.46
2023-02-21T05:03:53.871Z,84.44
2023-02-21T05:06:21.069Z,84.57
2023-02-21T05:08:46.995Z,84.71
2023-02-21T05:11:13.386Z,84.56
2023-02-21T05:13:39.608Z,84.67
2023-02-21T05:16:06.062Z,84.74
2023-02-21T05:18:33.974Z,84.57
2023-02-21T05:21:00.134Z,84.57
2023-02-21T05:23:35.557Z,84.11
2023-02-21T05:26:09.155Z,83.84
2023-02-21T05:28:35.608Z,83.48
2023-02-21T05:31:01.736Z,83.05
2023-02-21T05:33:27.963Z,82.94
2023-02-21T05:35:53.893Z,82.34
2023-02-21T05:38:20.101Z,82.08
2023-02-21T05:40:46.122Z,81.87
2023-02-21T05:43:12.156Z,81.23
2023-02-21T05:45:38.188Z,80.58
2023-02-21T05:48:04.415Z,80.29
2023-02-21T05:50:30.367Z,79.91
2023-02-21T05:52:57.304Z,79.74
2023-02-21T05:55:23.516Z,79.52
2023-02-21T05:57:49.526Z,79.12
2023-02-21T06:00:23.932Z,78.47
2023-02-21T06:02:51.593Z,78.05
2023-02-21T06:05:18.798Z,77.32
2023-02-21T06:07:45.516Z,76.89
2023-02-21T06:10:11.605Z,76.86
2023-02-21T06:12:40.546Z,76.58
2023-02-21T06:15:08.020Z,76.35
2023-02-21T06:17:36.339Z,75.97
2023-02-21T06:20:03.707Z,75.97
2023-02-21T06:22:29.956Z,75.87
2023-02-21T06:24:56.071Z,75.64
2023-02-21T06:27:22.176Z,75.40
2023-02-21T06:29:48.138Z,75.37
2023-02-21T06:32:14.065Z,75.28
2023-02-21T06:34:40.058Z,75.19
2023-02-21T06:37:06.495Z,75.10
2023-02-21T06:39:32.402Z,74.73
2023-02-21T06:41:59.279Z,74.57
2023-02-21T06:44:25.155Z,74.53
2023-02-21T06:46:51.223Z,74.27
2023-02-21T06:49:17.248Z,74.10
2023-02-21T06:51:43.192Z,73.97
2023-02-21T06:54:09.305Z,73.76
2023-02-21T06:56:35.698Z,73.32
2023-02-21T06:59:01.941Z,72.95
2023-02-21T07:01:28.493Z,72.72
2023-02-21T07:03:55.332Z,72.62
2023-02-21T07:06:21.349Z,72.45
2023-02-21T07:08:47.674Z,72.10
2023-02-21T07:11:14.382Z,72.09
2023-02-21T07:13:40.604Z,71.84
2023-02-21T07:16:06.672Z,71.36
2023-02-21T07:18:32.858Z,70.98
2023-02-21T07:20:59.129Z,70.23
2023-02-21T07:23:25.152Z,70.09
2023-02-21T07:25:51.287Z,69.60
2023-02-21T07:28:17.362Z,69.11
2023-02-21T07:30:43.315Z,68.56
2023-02-21T07:33:09.404Z,68.48
2023-02-21T07:35:35.468Z,68.15
2023-02-21T07:38:03.657Z,67.42
2023-02-21T07:40:29.552Z,66.86
2023-02-21T07:42:55.533Z,66.65
2023-02-21T07:45:21.659Z,66.21
2023-02-21T07:47:50.323Z,65.96
2023-02-21T07:50:16.717Z,65.52
2023-02-21T07:52:42.707Z,65.34
2023-02-21T07:55:08.750Z,65.10
2023-02-21T07:57:34.716Z,65.22
2023-02-21T08:00:00.646Z,64.69
2023-02-21T08:02:26.696Z,64.72
2023-02-21T08:04:52.647Z,64.63
2023-02-21T08:07:18.663Z,64.67
2023-02-21T08:09:44.584Z,64.46
2023-02-21T08:12:10.535Z,64.60
2023-02-21T08:14:36.449Z,64.32
2023-02-21T08:17:02.386Z,64.08
2023-02-21T08:19:28.373Z,63.82
2023-02-21T08:21:54.343Z,63.95
2023-02-21T08:24:20.526Z,63.75
2023-02-21T08:26:46.936Z,63.62
2023-02-21T08:29:13.717Z,63.54
2023-02-21T08:31:40.458Z,63.33
2023-02-21T08:34:06.929Z,63.31
2023-02-21T08:36:37.402Z,63.33
2023-02-21T08:39:03.640Z,63.50
2023-02-21T08:41:43.100Z,63.29
2023-02-21T08:44:10.768Z,62.84
2023-02-21T08:46:38.895Z,63.06
2023-02-21T08:49:04.991Z,63.21
2023-02-21T08:51:32.012Z,63.12
2023-02-21T08:53:58.081Z,63.25
2023-02-21T08:56:24.510Z,63.58
2023-02-21T08:58:50.592Z,63.80
2023-02-21T09:01:17.127Z,63.47
2023-02-21T09:03:43.335Z,63.34
2023-02-21T09:06:09.499Z,63.29
2023-02-21T09:08:36.442Z,63.30
2023-02-21T09:11:02.457Z,62.89
2023-02-21T09:13:28.997Z,62.78
2023-02-21T09:15:56.031Z,62.34
2023-02-21T09:18:22.570Z,62.14
2023-02-21T09:20:53.225Z,61.65
2023-02-21T09:23:19.851Z,61.86
2023-02-21T09:25:46.712Z,62.02
2023-02-21T09:28:13.597Z,61.79
2023-02-21T09:30:42.413Z,61.71
2023-02-21T09:33:08.930Z,61.87
2023-02-21T09:35:34.994Z,61.93
2023-02-21T09:38:01.116Z,62.02
2023-02-21T09:40:41.074Z,62.08
2023-02-21T09:43:26.028Z,62.08
2023-02-21T09:45:54.587Z,62.01
2023-02-21T09:48:21.385Z,61.98
2023-02-21T09:50:55.040Z,61.95
2023-02-21T09:53:26.456Z,62.15
2023-02-21T09:55:54.372Z,62.27
2023-02-21T09:58:20.700Z,62.28
2023-02-21T10:00:47.093Z,62.29
2023-02-21T10:03:35.174Z,62.54
2023-02-21T10:06:07.647Z,62.45
2023-02-21T10:08:39.921Z,62.21
2023-02-21T10:11:27.972Z,62.10
2023-02-21T10:14:01.769Z,62.09
2023-02-21T10:16:38.982Z,61.80
2023-02-21T10:19:30.697Z,61.82
2023-02-21T10:21:58.153Z,61.49
2023-02-21T10:24:24.976Z,61.35
2023-02-21T10:27:01.352Z,61.06
2023-02-21T10:29:45.904Z,60.74
2023-02-21T10:32:12.158Z,60.86
2023-02-21T10:34:39.914Z,60.87
2023-02-21T10:37:14.966Z,60.79
2023-02-21T10:39:46.104Z,60.84
2023-02-21T10:42:25.923Z,60.71
2023-02-21T10:44:52.161Z,60.50
2023-02-21T10:47:20.116Z,60.41
2023-02-21T10:49:49.719Z,60.44
2023-02-21T10:52:17.525Z,60.30
2023-02-21T10:55:31.230Z,60.51
2023-02-21T10:57:58.439Z,60.45
2023-02-21T11:00:30.603Z,60.49
2023-02-21T11:02:57.307Z,60.45
2023-02-21T11:05:23.531Z,60.38
2023-02-21T11:08:00.632Z,60.17
2023-02-21T11:10:32.038Z,60.21
2023-02-21T11:13:12.846Z,60.01
2023-02-21T11:15:38.793Z,60.03
2023-02-21T11:18:16.040Z,60.17
2023-02-21T11:20:42.168Z,60.52
2023-02-21T11:23:25.605Z,60.56
2023-02-21T11:25:57.016Z,60.47
2023-02-21T11:28:23.284Z,60.37
2023-02-21T11:30:58.665Z,60.49
2023-02-21T11:33:24.750Z,60.30
2023-02-21T11:35:51.960Z,60.35
2023-02-21T11:38:35.244Z,60.67
2023-02-21T11:41:02.405Z,60.73
2023-02-21T11:43:29.190Z,60.97
2023-02-21T11:45:55.161Z,61.04
2023-02-21T11:48:27.427Z,61.38
2023-02-21T11:50:53.439Z,61.59
2023-02-21T11:53:25.447Z,61.41
2023-02-21T11:55:58.705Z,61.37
2023-02-21T11:58:50.386Z,61.51
2023-02-21T12:01:20.281Z,61.30
2023-02-21T12:04:15.325Z,61.34
2023-02-21T12:06:44.515Z,61.71
2023-02-21T12:09:16.493Z,61.84
2023-02-21T12:11:51.330Z,61.58
2023-02-21T12:14:38.346Z,61.49
2023-02-21T12:17:31.949Z,61.43
2023-02-21T12:20:19.681Z,61.36
2023-02-21T12:22:57.925Z,60.94
2023-02-21T12:25:27.173Z,60.86
2023-02-21T12:27:59.211Z,60.73
2023-02-21T12:30:36.066Z,60.52
2023-02-21T12:33:20.605Z,60.58
2023-02-21T12:35:50.727Z,60.59
2023-02-21T12:38:35.841Z,60.79
2023-02-21T12:41:18.787Z,60.58
2023-02-21T12:44:11.158Z,60.54
2023-02-21T12:46:59.438Z,60.46
2023-02-21T12:49:25.314Z,60.62
2023-02-21T12:52:04.930Z,60.57
2023-02-21T12:54:40.917Z,60.76
2023-02-21T12:57:12.571Z,60.41
2023-02-21T12:59:46.161Z,60.38
2023-02-21T13:02:18.731Z,60.33
2023-02-21T13:04:50.701Z,60.27
2023-02-21T13:07:25.812Z,60.31
2023-02-21T13:10:13.457Z,60.29
2023-02-21T13:12:58.370Z,60.19
2023-02-21T13:15:28.237Z,60.49
2023-02-21T13:18:31.836Z,60.40
2023-02-21T13:21:25.859Z,60.50
2023-02-21T13:23:53.873Z,60.59
2023-02-21T13:26:35.377Z,60.57
2023-02-21T13:29:01.397Z,60.54
2023-02-21T13:31:38.629Z,60.33
2023-02-21T13:34:08.905Z,60.32
2023-02-21T13:36:37.597Z,60.44
2023-02-21T13:39:13.771Z,60.36
2023-02-21T13:41:42.728Z,60.53
2023-02-21T13:44:18.741Z,60.39
2023-02-21T13:46:44.712Z,60.62
2023-02-21T13:49:39.019Z,60.78
2023-02-21T13:52:24.165Z,60.86
2023-02-21T13:55:16.287Z,60.71
2023-02-21T13:58:12.372Z,60.54
2023-02-21T14:00:38.298Z,60.61
2023-02-21T14:03:24.473Z,60.84
2023-02-21T14:05:50.495Z,60.99
2023-02-21T14:08:24.304Z,60.98
2023-02-21T14:10:52.577Z,60.95
2023-02-21T14:13:18.547Z,61.14
2023-02-21T14:15:45.751Z,61.14
2023-02-21T14:18:21.040Z,61.17
2023-02-21T14:20:48.880Z,61.17
2023-02-21T14:23:16.934Z,61.21
2023-02-21T14:26:00.135Z,61.32
2023-02-21T14:28:57.644Z,61.27
2023-02-21T14:31:45.508Z,61.28
2023-02-21T14:34:11.640Z,61.46
2023-02-21T14:36:37.820Z,61.31
2023-02-21T14:39:03.709Z,61.46
2023-02-21T14:41:41.879Z,61.52
2023-02-21T14:44:37.133Z,61.60
2023-02-21T14:47:25.089Z,61.56
2023-02-21T14:50:09.608Z,61.77
2023-02-21T14:52:39.054Z,61.87
2023-02-21T14:55:30.001Z,61.87
2023-02-21T14:58:23.810Z,61.81
2023-02-21T15:01:00.094Z,61.71
2023-02-21T15:03:51.528Z,62.03
2023-02-21T15:06:20.452Z,61.99
2023-02-21T15:08:48.227Z,62.00
2023-02-21T15:11:30.537Z,62.03
2023-02-21T15:14:21.795Z,61.99
2023-02-21T15:16:53.634Z,62.28
2023-02-21T15:19:24.597Z,62.16
2023-02-21T15:22:25.788Z,62.06
2023-02-21T15:24:58.863Z,61.93
2023-02-21T15:27:24.791Z,61.98
2023-02-21T15:30:16.656Z,62.04
2023-02-21T15:32:42.848Z,62.15
2023-02-21T15:35:15.911Z,62.27
2023-02-21T15:37:41.923Z,62.26
2023-02-21T15:40:21.769Z,62.43
2023-02-21T15:42:47.765Z,62.45
2023-02-21T15:45:28.258Z,62.54
2023-02-21T15:47:54.280Z,62.50
2023-02-21T15:50:34.286Z,62.55
2023-02-21T15:53:15.817Z,62.62
2023-02-21T15:55:41.803Z,62.67
2023-02-21T15:58:07.709Z,62.78
2023-02-21T16:00:33.714Z,62.83
2023-02-21T16:03:28.216Z,62.70
2023-02-21T16:05:55.271Z,62.71
2023-02-21T16:08:21.360Z,62.69
2023-02-21T16:10:47.286Z,62.87
2023-02-21T16:13:14.135Z,62.91
2023-02-21T16:15:40.391Z,63.02
2023-02-21T16:18:07.664Z,63.21
2023-02-21T16:20:34.274Z,63.32
2023-02-21T16:23:22.212Z,63.40
2023-02-21T16:26:06.444Z,63.43
2023-02-21T16:28:32.469Z,63.47
2023-02-21T16:31:00.422Z,63.54
2023-02-21T16:33:27.088Z,63.63
2023-02-21T16:35:53.269Z,63.83
2023-02-21T16:38:20.308Z,63.84
2023-02-21T16:40:46.433Z,63.88
2023-02-21T16:43:23.180Z,63.88
2023-02-21T16:45:50.938Z,64.01
2023-02-21T16:48:21.021Z,64.18
2023-02-21T16:50:47.866Z,64.02
2023-02-21T16:53:14.206Z,64.06
2023-02-21T16:55:41.883Z,63.93
2023-02-21T16:58:16.392Z,63.95
2023-02-21T17:00:42.328Z,63.90
2023-02-21T17:03:08.232Z,64.09
2023-02-21T17:05:35.378Z,63.99
2023-02-21T17:08:01.279Z,64.27
2023-02-21T17:10:27.329Z,64.22
2023-02-21T17:12:53.452Z,64.27
2023-02-21T17:15:21.110Z,64.18
2023-02-21T17:17:53.253Z,64.38
2023-02-21T17:20:20.130Z,64.57
2023-02-21T17:22:47.734Z,64.42
2023-02-21T17:25:14.315Z,64.38
2023-02-21T17:27:40.625Z,64.40
2023-02-21T17:30:07.717Z,64.46
2023-02-21T17:32:33.642Z,64.77
2023-02-21T17:34:59.703Z,64.72
2023-02-21T17:37:25.629Z,64.72
2023-02-21T17:39:53.082Z,64.63
2023-02-21T17:42:19.064Z,64.73
2023-02-21T17:44:46.652Z,64.67
2023-02-21T17:47:12.635Z,64.98
2023-02-21T17:49:38.658Z,64.58
2023-02-21T17:52:04.779Z,64.72
2023-02-21T17:54:30.783Z,64.87
2023-02-21T17:56:56.724Z,64.75
2023-02-21T17:59:22.731Z,64.79
2023-02-21T18:01:48.718Z,64.62
2023-02-21T18:04:14.747Z,64.69
2023-02-21T18:06:41.464Z,64.76
2023-02-21T18:09:07.567Z,65.00
2023-02-21T18:11:35.249Z,64.79
2023-02-21T18:14:01.883Z,64.99
2023-02-21T18:16:28.031Z,65.14
2023-02-21T18:18:54.037Z,65.18
2023-02-21T18:21:22.639Z,65.08
2023-02-21T18:23:48.946Z,65.31
2023-02-21T18:26:16.296Z,65.47
2023-02-21T18:28:42.320Z,65.45
2023-02-21T18:31:10.808Z,65.52
2023-02-21T18:33:37.018Z,65.55
2023-02-21T18:36:05.000Z,65.63
2023-02-21T18:38:30.929Z,65.50
2023-02-21T18:41:01.159Z,65.55
2023-02-21T18:43:29.138Z,65.64
2023-02-21T18:45:57.188Z,65.70
2023-02-21T18:48:23.712Z,65.60
2023-02-21T18:50:49.839Z,65.64
2023-02-21T18:53:16.351Z,65.70
2023-02-21T18:55:42.413Z,65.84
2023-02-21T18:58:08.485Z,66.00
2023-02-21T19:00:35.909Z,65.96
2023-02-21T19:03:03.412Z,65.79
2023-02-21T19:05:29.465Z,65.79
2023-02-21T19:07:55.404Z,65.89
2023-02-21T19:10:22.897Z,65.81
2023-02-21T19:12:49.366Z,65.89
2023-02-21T19:15:15.992Z,65.89
2023-02-21T19:17:45.439Z,65.89
2023-02-21T19:20:12.191Z,66.01
2023-02-21T19:22:38.157Z,65.79
2023-02-21T19:25:05.044Z,65.81
2023-02-21T19:27:31.084Z,66.01
2023-02-21T19:29:57.026Z,65.65
2023-02-21T19:32:23.132Z,65.67
2023-02-21T19:34:50.220Z,65.91
2023-02-21T19:37:16.506Z,65.65
2023-02-21T19:39:42.563Z,65.59
2023-02-21T19:42:08.559Z,65.80
2023-02-21T19:44:34.853Z,65.66
2023-02-21T19:47:00.876Z,65.45
2023-02-21T19:49:27.122Z,65.49
2023-02-21T19:51:53.759Z,65.44
2023-02-21T19:54:21.848Z,65.66
2023-02-21T19:56:49.418Z,65.43
2023-02-21T19:59:16.228Z,65.22
2023-02-21T20:01:42.142Z,65.28
2023-02-21T20:04:08.241Z,65.31
2023-02-21T20:06:35.571Z,65.34
2023-02-21T20:09:02.907Z,65.07
2023-02-21T20:11:28.897Z,65.04
2023-02-21T20:13:55.072Z,65.07
2023-02-21T20:16:21.785Z,65.08
2023-02-21T20:18:50.998Z,65.00
2023-02-21T20:21:18.631Z,65.24
2023-02-21T20:23:44.642Z,64.99
2023-02-21T20:26:12.223Z,65.15
2023-02-21T20:28:38.337Z,64.92
2023-02-21T20:31:04.588Z,65.04
2023-02-21T20:33:30.851Z,64.84
2023-02-21T20:35:57.826Z,64.84
2023-02-21T20:38:24.374Z,64.87
2023-02-21T20:40:50.439Z,65.05
2023-02-21T20:43:16.362Z,64.70
2023-02-21T20:45:43.808Z,64.90
2023-02-21T20:48:10.524Z,65.01
2023-02-21T20:50:36.917Z,64.91
2023-02-21T20:53:03.272Z,65.23
2023-02-21T20:55:29.199Z,65.06
2023-02-21T20:57:55.336Z,65.28
2023-02-21T21:00:22.821Z,64.92
2023-02-21T21:02:52.344Z,65.32
2023-02-21T21:05:19.915Z,65.10
2023-02-21T21:07:45.925Z,65.18
2023-02-21T21:10:13.975Z,65.25
2023-02-21T21:12:40.819Z,65.37
2023-02-21T21:15:09.225Z,65.07
2023-02-21T21:17:36.203Z,65.07
2023-02-21T21:20:05.157Z,65.15
2023-02-21T21:22:31.270Z,65.34
2023-02-21T21:24:57.188Z,65.40
2023-02-21T21:27:23.392Z,65.37
2023-02-21T21:29:49.887Z,65.26
2023-02-21T21:32:17.851Z,65.18
2023-02-21T21:34:51.102Z,65.19
2023-02-21T21:37:19.408Z,65.48
2023-02-21T21:39:48.577Z,65.29
2023-02-21T21:42:16.553Z,65.07
2023-02-21T21:44:51.279Z,65.42
2023-02-21T21:47:32.252Z,65.24
2023-02-21T21:49:58.898Z,65.30
2023-02-21T21:52:24.897Z,65.30
2023-02-21T21:54:50.854Z,65.18
2023-02-21T21:57:17.675Z,65.17
2023-02-21T21:59:43.870Z,65.45
2023-02-21T22:02:10.609Z,65.35
2023-02-21T22:04:37.488Z,65.36
2023-02-21T22:07:03.770Z,65.68
2023-02-21T22:09:31.170Z,65.54
2023-02-21T22:11:57.230Z,65.41
2023-02-21T22:14:23.328Z,65.53
2023-02-21T22:16:50.462Z,65.64
2023-02-21T22:19:16.587Z,65.69
2023-02-21T22:21:43.345Z,65.68
2023-02-21T22:24:09.572Z,65.78
2023-02-21T22:26:39.081Z,66.07
2023-02-21T22:29:06.270Z,66.25
2023-02-21T22:31:32.373Z,65.96
2023-02-21T22:34:01.458Z,65.98
2023-02-21T22:36:31.295Z,66.08
2023-02-21T22:38:57.404Z,66.25
2023-02-21T22:41:30.048Z,66.53
2023-02-21T22:43:55.947Z,66.40
2023-02-21T22:46:25.220Z,66.50
2023-02-21T22:48:51.778Z,66.65
2023-02-21T22:51:18.414Z,66.67
2023-02-21T22:53:50.621Z,66.50
2023-02-21T22:56:24.493Z,66.86
2023-02-21T22:58:51.369Z,66.74
2023-02-21T23:01:20.257Z,66.96
2023-02-21T23:03:46.978Z,66.94
2023-02-21T23:06:13.961Z,66.83
2023-02-21T23:08:40.584Z,67.02
2023-02-21T23:11:06.936Z,66.93
2023-02-21T23:13:33.240Z,67.24
2023-02-21T23:16:00.544Z,67.07
2023-02-21T23:18:26.769Z,67.24
2023-02-21T23:20:54.206Z,67.32
2023-02-21T23:23:21.739Z,67.26
2023-02-21T23:25:47.769Z,67.10
2023-02-21T23:28:14.486Z,67.26
2023-02-21T23:30:40.851Z,67.12
2023-02-21T23:33:18.121Z,67.38
2023-02-21T23:35:45.445Z,67.20
2023-02-21T23:38:14.895Z,67.59
2023-02-21T23:40:43.388Z,67.49
2023-02-21T23:43:09.585Z,67.66
2023-02-21T23:45:38.718Z,67.53
2023-02-21T23:48:08.830Z,67.50
2023-02-21T23:50:36.223Z,67.62
2023-02-21T23:53:02.780Z,67.92
2023-02-21T23:55:29.376Z,67.59
2023-02-21T23:57:59.248Z,67.86
